Time;durP1;ratioP1;P1;durP2;ratioP2;P2;SDS_P1;SDS_P2;PMS_P1;PMS_P2;Temp;Humidity;BMP_temperature;BMP_pressure;BME280_temperature;BME280_humidity;BME280_pressure;Samples;Min_cycle;Max_cycle;Signal;HPM_P1;HPM_P2
2021/11/03 00:01:37;;;;;;;12.80;9.87;;;5.20;99.90;;;;;;5061390;28;20217;-50
2021/11/03 00:04:05;;;;;;;15.43;10.77;;;5.20;99.90;;;;;;5058492;28;20229;-52
2021/11/03 00:06:32;;;;;;;13.80;11.60;;;5.20;99.90;;;;;;5056790;28;20213;-46
2021/11/03 00:09:01;;;;;;;16.73;13.13;;;5.20;99.90;;;;;;5056112;28;20285;-49
2021/11/03 00:11:31;;;;;;;17.60;11.90;;;5.30;99.90;;;;;;5061580;28;20198;-48
2021/11/03 00:13:57;;;;;;;15.73;11.30;;;5.40;99.90;;;;;;5046596;28;20219;-48
2021/11/03 00:16:24;;;;;;;14.83;10.30;;;5.40;99.90;;;;;;5061571;28;20195;-50
2021/11/03 00:18:51;;;;;;;13.87;10.53;;;5.40;99.90;;;;;;5061601;28;20223;-48
2021/11/03 00:21:17;;;;;;;15.07;11.30;;;5.50;99.90;;;;;;5055161;28;20207;-48
2021/11/03 00:23:44;;;;;;;16.30;10.60;;;5.50;99.90;;;;;;5062304;28;20588;-45
2021/11/03 00:26:11;;;;;;;14.90;10.50;;;5.50;99.90;;;;;;5054704;28;20935;-48
2021/11/03 00:28:39;;;;;;;15.30;11.33;;;5.50;99.90;;;;;;5048900;28;20690;-50
2021/11/03 00:31:06;;;;;;;17.03;10.93;;;5.40;99.90;;;;;;5058777;28;20191;-51
2021/11/03 00:33:33;;;;;;;14.00;10.90;;;5.40;99.90;;;;;;5062989;28;20690;-50
2021/11/03 00:36:00;;;;;;;15.10;10.77;;;5.30;99.90;;;;;;5059884;28;20282;-50
2021/11/03 00:38:28;;;;;;;16.33;10.97;;;5.30;99.90;;;;;;5056538;28;20195;-46
2021/11/03 00:40:55;;;;;;;14.57;11.00;;;5.30;99.90;;;;;;5056731;28;20269;-52
2021/11/03 00:43:23;;;;;;;15.60;10.83;;;5.30;99.90;;;;;;5047430;28;20215;-52
2021/11/03 00:45:51;;;;;;;12.73;10.97;;;5.40;99.90;;;;;;5060027;28;20199;-51
2021/11/03 00:48:19;;;;;;;17.07;11.33;;;5.40;99.90;;;;;;5059134;28;20199;-50
2021/11/03 00:50:46;;;;;;;15.43;10.50;;;5.40;99.90;;;;;;5065574;28;20233;-46
2021/11/03 00:53:13;;;;;;;16.00;10.83;;;5.40;99.90;;;;;;5057381;28;20211;-47
2021/11/03 00:55:41;;;;;;;17.63;11.57;;;5.30;99.90;;;;;;5066257;28;20229;-47
2021/11/03 00:58:08;;;;;;;13.13;10.57;;;5.30;99.90;;;;;;5036658;28;21215;-49
2021/11/03 01:00:35;;;;;;;15.23;10.83;;;5.30;99.90;;;;;;5064316;28;20187;-49
2021/11/03 01:03:03;;;;;;;14.30;10.57;;;5.30;99.90;;;;;;5058652;28;20202;-51
2021/11/03 01:05:30;;;;;;;14.47;10.57;;;5.30;99.90;;;;;;5065227;28;20223;-50
2021/11/03 01:07:56;;;;;;;12.40;10.17;;;5.30;99.90;;;;;;5062579;28;20559;-48
2021/11/03 01:10:24;;;;;;;13.83;10.03;;;5.30;99.90;;;;;;5062025;28;20221;-45
2021/11/03 01:12:53;;;;;;;13.13;9.93;;;5.30;99.90;;;;;;5058937;28;20194;-51
2021/11/03 01:15:23;;;;;;;13.87;9.90;;;5.30;99.90;;;;;;5045481;28;20214;-47
2021/11/03 01:17:51;;;;;;;15.83;9.97;;;5.40;99.90;;;;;;5060497;28;20191;-46
2021/11/03 01:20:19;;;;;;;12.23;9.77;;;5.40;99.90;;;;;;5062922;28;20194;-48
2021/11/03 01:22:45;;;;;;;15.13;10.57;;;5.40;99.90;;;;;;5065838;28;20567;-47
2021/11/03 01:25:16;;;;;;;14.47;11.20;;;5.50;99.90;;;;;;5056847;28;20233;-46
2021/11/03 01:27:43;;;;;;;16.67;10.87;;;5.50;99.90;;;;;;5066347;28;20555;-48
2021/11/03 01:30:12;;;;;;;14.03;11.67;;;5.50;99.90;;;;;;5040300;28;21050;-51
2021/11/03 01:32:39;;;;;;;14.10;10.07;;;5.50;99.90;;;;;;5064403;28;20294;-46
2021/11/03 01:35:08;;;;;;;17.43;11.47;;;5.60;99.90;;;;;;5061982;28;20265;-44
2021/11/03 01:37:36;;;;;;;15.07;11.03;;;5.50;99.90;;;;;;5066228;28;20203;-47
2021/11/03 01:40:04;;;;;;;17.10;11.47;;;5.50;99.90;;;;;;5056158;28;20207;-46
2021/11/03 01:42:33;;;;;;;17.30;11.00;;;5.50;99.90;;;;;;5064510;28;20195;-45
2021/11/03 01:44:59;;;;;;;15.23;11.57;;;5.50;99.90;;;;;;5057387;28;20214;-47
2021/11/03 01:47:44;;;;;;;19.37;12.13;;;5.50;99.90;;;;;;5044514;28;20209;-46
2021/11/03 01:50:18;;;;;;;14.57;10.70;;;5.50;99.90;;;;;;5059491;28;20815;-46
2021/11/03 01:52:48;;;;;;;16.50;11.40;;;5.40;99.90;;;;;;5064445;28;20697;-47
2021/11/03 01:55:17;;;;;;;17.13;12.20;;;5.30;99.90;;;;;;5058082;28;20222;-49
2021/11/03 01:57:49;;;;;;;15.10;11.73;;;5.40;99.90;;;;;;5062544;28;20230;-48
2021/11/03 02:00:20;;;;;;;13.67;11.10;;;5.40;99.90;;;;;;5056361;28;20914;-49
2021/11/03 02:03:02;;;;;;;15.17;11.13;;;5.40;99.90;;;;;;5044546;28;20211;-49
2021/11/03 02:05:29;;;;;;;15.47;9.60;;;5.40;99.90;;;;;;5065397;28;20230;-45
2021/11/03 02:07:59;;;;;;;13.93;10.20;;;5.50;99.90;;;;;;5062228;28;20293;-47
2021/11/03 02:10:27;;;;;;;13.80;10.93;;;5.50;99.90;;;;;;5059056;28;20735;-45
2021/11/03 02:12:57;;;;;;;15.47;12.03;;;5.40;99.90;;;;;;5061644;28;20209;-47
2021/11/03 02:15:24;;;;;;;15.57;10.40;;;5.40;99.90;;;;;;5058148;28;22203;-49
2021/11/03 02:17:52;;;;;;;16.90;11.73;;;5.40;99.90;;;;;;5047469;28;20202;-45
2021/11/03 02:20:24;;;;;;;17.63;11.20;;;5.50;99.90;;;;;;5061736;28;20883;-45
2021/11/03 02:23:04;;;;;;;13.50;11.17;;;5.50;99.90;;;;;;5064062;28;20225;-49
2021/11/03 02:25:38;;;;;;;14.47;11.90;;;5.60;99.90;;;;;;5060625;28;20222;-53
2021/11/03 02:28:06;;;;;;;16.53;11.53;;;5.60;99.90;;;;;;5059907;28;20297;-50
2021/11/03 02:30:33;;;;;;;15.23;11.70;;;5.70;99.90;;;;;;5060025;28;20222;-48
2021/11/03 02:33:04;;;;;;;16.17;12.00;;;5.70;99.90;;;;;;5045804;28;20199;-49
2021/11/03 02:35:31;;;;;;;17.00;12.37;;;5.70;99.90;;;;;;5062785;28;20702;-48
2021/11/03 02:37:59;;;;;;;16.63;12.33;;;5.80;99.90;;;;;;5060823;28;20191;-49
2021/11/03 02:40:46;;;;;;;21.23;13.07;;;5.90;99.90;;;;;;5062999;28;20667;-51
2021/11/03 02:43:24;;;;;;;18.93;12.70;;;5.90;99.90;;;;;;5055364;28;20242;-48
2021/11/03 02:45:53;;;;;;;18.63;12.43;;;6.00;99.90;;;;;;5062191;28;20202;-46
2021/11/03 02:48:22;;;;;;;15.77;11.60;;;6.00;99.90;;;;;;5045100;28;20213;-52
2021/11/03 02:50:58;;;;;;;17.57;11.67;;;6.00;99.90;;;;;;5062421;28;20223;-48
2021/11/03 02:53:25;;;;;;;14.70;11.53;;;6.10;99.90;;;;;;5077699;28;20202;-43
2021/11/03 02:55:54;;;;;;;17.17;11.73;;;6.10;99.90;;;;;;5061354;28;20675;-50
2021/11/03 02:58:21;;;;;;;16.37;11.77;;;6.10;99.90;;;;;;5057942;28;20206;-49
2021/11/03 03:00:49;;;;;;;16.93;12.17;;;6.10;99.90;;;;;;5062555;28;20562;-53
2021/11/03 03:03:16;;;;;;;17.67;12.47;;;6.20;99.90;;;;;;5058378;28;23870;-50
2021/11/03 03:05:51;;;;;;;16.80;13.57;;;6.20;99.90;;;;;;5062448;28;20211;-48
2021/11/03 03:08:18;;;;;;;19.33;12.37;;;6.20;99.90;;;;;;5058116;28;20218;-48
2021/11/03 03:10:45;;;;;;;18.17;12.07;;;6.20;99.90;;;;;;5062954;28;20660;-50
2021/11/03 03:13:12;;;;;;;16.80;12.67;;;6.20;99.90;;;;;;5053683;28;20197;-48
2021/11/03 03:15:39;;;;;;;17.37;12.37;;;6.20;99.90;;;;;;5063070;28;20334;-50
2021/11/03 03:18:06;;;;;;;17.33;12.70;;;6.20;99.90;;;;;;5053822;28;20201;-48
2021/11/03 03:20:33;;;;;;;17.80;11.93;;;6.30;99.90;;;;;;5049879;28;20199;-47
2021/11/03 03:22:59;;;;;;;19.10;11.53;;;6.30;99.90;;;;;;5060834;28;20218;-46
2021/11/03 03:25:28;;;;;;;18.47;12.13;;;6.30;99.90;;;;;;5061516;28;20221;-49
2021/11/03 03:27:58;;;;;;;18.10;12.17;;;6.30;99.90;;;;;;5055589;28;20194;-52
2021/11/03 03:30:26;;;;;;;14.70;11.53;;;6.30;99.90;;;;;;5061323;28;20305;-47
2021/11/03 03:32:53;;;;;;;16.23;11.93;;;6.30;99.90;;;;;;5059763;28;20199;-49
2021/11/03 03:35:19;;;;;;;16.63;12.20;;;6.40;99.90;;;;;;5042455;28;20233;-48
2021/11/03 03:37:47;;;;;;;15.20;12.17;;;6.40;99.90;;;;;;5063436;28;20194;-46
2021/11/03 03:40:14;;;;;;;15.97;12.13;;;6.40;99.90;;;;;;5058908;28;20224;-44
2021/11/03 03:42:40;;;;;;;17.17;12.43;;;6.40;99.90;;;;;;5063307;28;20277;-45
2021/11/03 03:45:08;;;;;;;20.00;12.63;;;6.40;99.90;;;;;;5055356;28;20930;-48
2021/11/03 03:47:36;;;;;;;18.00;11.30;;;6.40;99.90;;;;;;5062451;28;20598;-49
2021/11/03 03:50:05;;;;;;;17.47;12.07;;;6.50;99.90;;;;;;5040350;28;20222;-49
2021/11/03 03:52:32;;;;;;;18.13;11.97;;;6.50;99.90;;;;;;5061880;28;20199;-49
2021/11/03 03:54:59;;;;;;;15.77;12.13;;;6.50;99.90;;;;;;5059214;28;20221;-46
2021/11/03 03:57:26;;;;;;;14.37;11.67;;;6.50;99.90;;;;;;5059371;28;20290;-49
2021/11/03 03:59:52;;;;;;;16.07;11.40;;;6.50;99.90;;;;;;5057155;28;20286;-48
2021/11/03 04:02:20;;;;;;;16.80;12.07;;;6.50;99.90;;;;;;5059897;28;20274;-44
2021/11/03 04:04:48;;;;;;;15.70;11.40;;;6.50;99.90;;;;;;5055341;28;20230;-48
2021/11/03 04:07:15;;;;;;;16.40;11.70;;;6.50;99.90;;;;;;5048827;28;20234;-50
2021/11/03 04:09:42;;;;;;;16.63;11.43;;;6.60;99.90;;;;;;5061790;28;20199;-51
2021/11/03 04:12:10;;;;;;;15.10;11.70;;;6.60;99.90;;;;;;5057836;28;20206;-52
2021/11/03 04:14:37;;;;;;;16.30;11.13;;;6.60;99.90;;;;;;5057997;28;20250;-49
2021/11/03 04:17:04;;;;;;;15.93;11.60;;;6.60;99.90;;;;;;5057817;28;20190;-49
2021/11/03 04:19:32;;;;;;;17.40;11.80;;;6.60;99.90;;;;;;5057161;28;20214;-46
2021/11/03 04:22:01;;;;;;;15.00;11.30;;;6.60;99.90;;;;;;5045351;28;20670;-43
2021/11/03 04:24:38;;;;;;;13.47;10.37;;;6.50;99.90;;;;;;5055884;28;20283;-51
2021/11/03 04:27:06;;;;;;;17.63;11.37;;;6.60;99.90;;;;;;5058010;28;20195;-49
2021/11/03 04:29:33;;;;;;;14.33;10.33;;;6.50;99.90;;;;;;5060664;28;20292;-44
2021/11/03 04:32:00;;;;;;;16.67;10.77;;;6.50;99.90;;;;;;5053083;28;20221;-44
2021/11/03 04:34:28;;;;;;;14.07;10.70;;;6.50;99.90;;;;;;5056187;28;20290;-51
2021/11/03 04:37:01;;;;;;;16.33;10.57;;;6.50;99.90;;;;;;5044684;28;20219;-46
2021/11/03 04:39:29;;;;;;;14.33;10.90;;;6.50;99.90;;;;;;5056324;28;20202;-50
2021/11/03 04:41:56;;;;;;;14.87;11.17;;;6.50;99.90;;;;;;5059332;28;20210;-47
2021/11/03 04:44:23;;;;;;;18.10;11.63;;;6.50;99.90;;;;;;5061536;28;20375;-43
2021/11/03 04:46:50;;;;;;;14.90;10.83;;;6.50;99.90;;;;;;5055253;28;20199;-50
2021/11/03 04:49:22;;;;;;;15.03;10.87;;;6.50;99.90;;;;;;5060049;28;20905;-45
2021/11/03 04:51:49;;;;;;;16.27;10.73;;;6.50;99.90;;;;;;5046675;28;20216;-50
2021/11/03 04:54:17;;;;;;;15.37;10.67;;;6.60;99.90;;;;;;5058428;28;20317;-47
2021/11/03 04:56:43;;;;;;;16.10;10.53;;;6.50;99.90;;;;;;5062872;28;20198;-45
2021/11/03 04:59:11;;;;;;;16.17;11.13;;;6.50;99.90;;;;;;5057977;28;20187;-45
2021/11/03 05:01:38;;;;;;;18.80;10.13;;;6.50;99.90;;;;;;5045403;28;20291;-47
2021/11/03 05:04:05;;;;;;;16.13;10.67;;;6.50;99.90;;;;;;5059888;28;20214;-53
2021/11/03 05:06:37;;;;;;;14.70;10.73;;;6.50;99.90;;;;;;5038935;28;20230;-47
2021/11/03 05:09:08;;;;;;;12.70;10.47;;;6.50;99.90;;;;;;5061190;28;20203;-51
2021/11/03 05:11:36;;;;;;;18.00;10.53;;;6.50;99.90;;;;;;5057345;28;20313;-46
2021/11/03 05:14:04;;;;;;;14.73;10.80;;;6.50;99.90;;;;;;5061649;28;20223;-46
2021/11/03 05:16:33;;;;;;;14.07;11.03;;;6.50;99.90;;;;;;5051425;28;20206;-46
2021/11/03 05:19:02;;;;;;;18.03;11.47;;;6.60;99.90;;;;;;5056639;28;20578;-46
2021/11/03 05:21:39;;;;;;;16.23;10.30;;;6.60;99.90;;;;;;5053920;28;20941;-45
2021/11/03 05:24:08;;;;;;;14.73;10.80;;;6.50;99.90;;;;;;5052108;28;20710;-48
2021/11/03 05:26:36;;;;;;;12.80;10.27;;;6.60;99.90;;;;;;5058130;28;20191;-46
2021/11/03 05:29:04;;;;;;;14.50;10.73;;;6.60;99.90;;;;;;5063988;28;20205;-48
2021/11/03 05:31:31;;;;;;;12.97;9.70;;;6.60;99.90;;;;;;5062096;28;20257;-51
2021/11/03 05:33:58;;;;;;;14.33;11.13;;;6.60;99.90;;;;;;5061472;28;20262;-54
2021/11/03 05:36:27;;;;;;;13.23;10.30;;;6.60;99.90;;;;;;5061857;28;20190;-51
2021/11/03 05:38:55;;;;;;;13.60;9.90;;;6.60;99.90;;;;;;5046363;28;20195;-49
2021/11/03 05:41:22;;;;;;;13.13;10.17;;;6.60;99.90;;;;;;5063454;28;20673;-48
2021/11/03 05:43:50;;;;;;;14.60;10.37;;;6.60;99.90;;;;;;5064365;28;20649;-49
2021/11/03 05:46:20;;;;;;;16.07;10.20;;;6.60;99.90;;;;;;5062593;28;20198;-49
2021/11/03 05:48:49;;;;;;;13.83;11.37;;;6.60;99.90;;;;;;5062582;28;20690;-48
2021/11/03 05:51:18;;;;;;;15.90;10.30;;;6.60;99.90;;;;;;5062117;28;20222;-47
2021/11/03 05:53:46;;;;;;;14.33;10.20;;;6.50;99.90;;;;;;5060809;28;20663;-50
2021/11/03 05:56:13;;;;;;;12.50;10.13;;;6.50;99.90;;;;;;5048580;28;20202;-48
2021/11/03 05:58:39;;;;;;;14.57;9.20;;;6.60;99.90;;;;;;5057957;28;20210;-48
2021/11/03 06:01:08;;;;;;;11.13;9.00;;;6.60;99.90;;;;;;5061500;28;20202;-48
2021/11/03 06:03:35;;;;;;;10.83;9.00;;;6.60;99.90;;;;;;5055288;28;20226;-46
2021/11/03 06:06:03;;;;;;;10.90;8.83;;;6.60;99.90;;;;;;5061267;28;20206;-48
2021/11/03 06:08:30;;;;;;;15.37;10.20;;;6.50;99.90;;;;;;5057793;28;20209;-44
2021/11/03 06:10:59;;;;;;;10.83;9.50;;;6.50;99.90;;;;;;5039761;28;20210;-44
2021/11/03 06:13:27;;;;;;;11.67;8.50;;;6.50;99.90;;;;;;5065153;28;20201;-46
2021/11/03 06:15:53;;;;;;;11.20;9.83;;;6.40;99.90;;;;;;5049206;28;20195;-45
2021/11/03 06:18:21;;;;;;;10.63;9.33;;;6.40;99.90;;;;;;5061331;28;20195;-47
2021/11/03 06:20:48;;;;;;;10.63;9.07;;;6.40;99.90;;;;;;5056228;28;20210;-47
2021/11/03 06:23:14;;;;;;;10.43;8.93;;;6.40;99.90;;;;;;5071544;28;20792;-44
2021/11/03 06:25:41;;;;;;;19.40;13.37;;;6.30;99.90;;;;;;5049092;28;20221;-44
2021/11/03 06:28:09;;;;;;;17.73;12.33;;;6.30;99.90;;;;;;5053611;28;20211;-44
2021/11/03 06:30:37;;;;;;;19.43;11.90;;;6.20;99.90;;;;;;5057259;28;20213;-46
2021/11/03 06:33:04;;;;;;;13.00;9.87;;;6.30;99.90;;;;;;5059560;28;20913;-45
2021/11/03 06:35:36;;;;;;;13.33;11.77;;;6.20;99.90;;;;;;5025984;28;20207;-44
2021/11/03 06:38:05;;;;;;;34.67;18.27;;;6.20;99.90;;;;;;5060791;28;20218;-47
2021/11/03 06:40:31;;;;;;;14.27;9.83;;;6.20;99.90;;;;;;5055931;28;20203;-45
2021/11/03 06:42:58;;;;;;;18.13;10.30;;;6.10;99.90;;;;;;5046096;28;20742;-43
2021/11/03 06:45:27;;;;;;;12.57;9.23;;;6.10;99.90;;;;;;5056645;28;20390;-49
2021/11/03 06:47:54;;;;;;;14.00;9.20;;;6.10;99.90;;;;;;5057576;28;20282;-43
2021/11/03 06:50:25;;;;;;;11.47;7.93;;;6.10;99.90;;;;;;5058777;28;20205;-48
2021/11/03 06:52:55;;;;;;;10.67;8.33;;;6.10;99.90;;;;;;5063889;28;20708;-45
2021/11/03 06:55:23;;;;;;;9.53;8.13;;;6.00;99.90;;;;;;5051859;28;20308;-48
2021/11/03 06:57:50;;;;;;;11.53;8.60;;;6.00;99.90;;;;;;5038079;28;20206;-43
2021/11/03 07:00:23;;;;;;;11.50;8.93;;;5.90;99.90;;;;;;5051245;28;20294;-43
2021/11/03 07:02:50;;;;;;;10.53;8.33;;;5.80;99.90;;;;;;5053011;28;20213;-44
2021/11/03 07:05:17;;;;;;;13.03;9.10;;;5.80;99.90;;;;;;5057927;28;20218;-43
2021/11/03 07:07:44;;;;;;;11.80;9.40;;;5.80;99.90;;;;;;5059772;28;20220;-43
2021/11/03 07:10:20;;;;;;;11.87;9.00;;;5.80;99.90;;;;;;5051830;28;20654;-42
2021/11/03 07:12:47;;;;;;;12.97;9.50;;;5.80;99.90;;;;;;5047744;28;20218;-46
2021/11/03 07:15:14;;;;;;;13.00;9.23;;;5.80;99.90;;;;;;5054705;28;20222;-46
2021/11/03 07:17:41;;;;;;;13.17;8.40;;;5.90;99.90;;;;;;5053807;28;20659;-46
2021/11/03 07:20:08;;;;;;;13.20;9.33;;;5.90;99.90;;;;;;5058492;28;20663;-46
2021/11/03 07:22:35;;;;;;;14.03;10.17;;;6.00;99.90;;;;;;5058080;28;20697;-44
2021/11/03 07:25:01;;;;;;;14.00;9.20;;;6.00;99.90;;;;;;5056202;28;20227;-45
2021/11/03 07:27:29;;;;;;;11.50;8.87;;;6.00;99.90;;;;;;5044046;28;22095;-47
2021/11/03 07:29:56;;;;;;;13.63;10.03;;;6.10;99.90;;;;;;5058627;28;20576;-43
2021/11/03 07:32:22;;;;;;;18.07;10.30;;;6.10;99.90;;;;;;5057496;28;20222;-46
2021/11/03 07:34:49;;;;;;;12.07;9.87;;;6.10;99.90;;;;;;5054411;28;20214;-44
2021/11/03 07:37:16;;;;;;;18.73;10.93;;;6.20;99.90;;;;;;5050635;28;20912;-47
2021/11/03 07:39:43;;;;;;;18.60;12.33;;;6.20;99.90;;;;;;5063358;28;20201;-46
2021/11/03 07:42:10;;;;;;;17.37;10.80;;;6.20;99.90;;;;;;5044685;28;20194;-44
2021/11/03 07:44:46;;;;;;;16.57;11.20;;;6.30;99.90;;;;;;5044328;28;20698;-43
2021/11/03 07:47:13;;;;;;;16.23;12.00;;;6.30;99.90;;;;;;5057533;28;20899;-46
2021/11/03 07:49:40;;;;;;;13.97;10.50;;;6.40;99.90;;;;;;5058247;28;20207;-44
2021/11/03 07:52:07;;;;;;;18.53;12.90;;;6.40;99.90;;;;;;5054602;28;20233;-43
2021/11/03 07:54:34;;;;;;;19.23;13.20;;;6.50;99.90;;;;;;5061622;28;20223;-45
2021/11/03 07:57:01;;;;;;;17.63;12.13;;;6.50;99.90;;;;;;5042481;28;20206;-49
2021/11/03 07:59:28;;;;;;;20.13;12.23;;;6.60;99.90;;;;;;5034481;28;20264;-45
2021/11/03 08:01:57;;;;;;;28.67;17.63;;;6.60;99.90;;;;;;5056109;28;20583;-47
2021/11/03 08:04:25;;;;;;;21.50;13.93;;;6.70;99.90;;;;;;5049186;28;20225;-44
2021/11/03 08:06:52;;;;;;;22.93;14.60;;;6.80;99.90;;;;;;5060102;28;20213;-47
2021/11/03 08:09:18;;;;;;;20.03;13.20;;;6.80;99.90;;;;;;5055998;28;20697;-43
2021/11/03 08:11:48;;;;;;;18.03;13.53;;;6.90;99.90;;;;;;5051403;28;20234;-46
2021/11/03 08:14:16;;;;;;;18.43;12.57;;;7.00;99.90;;;;;;5046636;28;20226;-46
2021/11/03 08:16:49;;;;;;;22.63;14.10;;;7.10;99.90;;;;;;5058398;28;20183;-46
2021/11/03 08:19:17;;;;;;;23.97;14.80;;;7.20;99.90;;;;;;5052605;28;20213;-45
2021/11/03 08:21:44;;;;;;;20.87;13.43;;;7.30;99.90;;;;;;5055350;28;20201;-46
2021/11/03 08:24:11;;;;;;;21.03;13.90;;;7.40;99.90;;;;;;5055644;28;20230;-47
2021/11/03 08:26:38;;;;;;;21.00;13.57;;;7.60;99.90;;;;;;5052980;28;20202;-45
2021/11/03 08:29:05;;;;;;;22.67;14.13;;;7.70;99.90;;;;;;5044588;28;20219;-47
2021/11/03 08:31:32;;;;;;;22.07;13.60;;;7.80;99.90;;;;;;5060642;28;20583;-46
2021/11/03 08:33:58;;;;;;;20.93;14.03;;;7.90;99.90;;;;;;5056251;28;20869;-44
2021/11/03 08:36:26;;;;;;;24.67;14.20;;;7.90;99.90;;;;;;5057726;28;20203;-46
2021/11/03 08:38:56;;;;;;;24.67;15.73;;;7.90;99.90;;;;;;5055150;28;20194;-46
2021/11/03 08:41:23;;;;;;;24.40;14.87;;;8.00;99.90;;;;;;5053021;28;20215;-45
2021/11/03 08:43:50;;;;;;;23.30;14.63;;;8.00;99.90;;;;;;5032673;28;20229;-46
2021/11/03 08:46:18;;;;;;;22.33;14.87;;;8.00;99.90;;;;;;5053758;28;20206;-45
2021/11/03 08:48:45;;;;;;;28.80;16.00;;;8.10;99.90;;;;;;5058058;28;20195;-43
2021/11/03 08:51:12;;;;;;;25.80;16.47;;;8.10;99.90;;;;;;5059688;28;20846;-47
2021/11/03 08:53:40;;;;;;;25.73;15.27;;;8.10;99.90;;;;;;5056419;28;20211;-44
2021/11/03 08:56:08;;;;;;;30.80;17.37;;;8.20;99.90;;;;;;5059983;28;20899;-45
2021/11/03 08:58:34;;;;;;;26.33;16.63;;;8.20;99.90;;;;;;5057540;28;20257;-47
2021/11/03 09:01:01;;;;;;;23.67;15.87;;;8.30;99.90;;;;;;5040567;28;20194;-46
2021/11/03 09:03:28;;;;;;;23.97;16.30;;;8.20;99.90;;;;;;5066697;28;20228;-43
2021/11/03 09:05:55;;;;;;;27.53;16.93;;;8.30;99.90;;;;;;5067827;28;20924;-44
2021/11/03 09:08:22;;;;;;;28.17;17.70;;;8.20;99.90;;;;;;5061182;28;20738;-45
2021/11/03 09:10:55;;;;;;;27.40;17.77;;;8.20;99.90;;;;;;5051671;28;20195;-45
2021/11/03 09:13:24;;;;;;;27.43;17.47;;;8.20;99.90;;;;;;5047619;28;20235;-44
2021/11/03 09:15:52;;;;;;;27.47;18.00;;;8.30;99.90;;;;;;5044852;28;20227;-47
2021/11/03 09:18:20;;;;;;;27.17;17.27;;;8.30;99.90;;;;;;5051661;28;20654;-48
2021/11/03 09:20:49;;;;;;;28.47;17.10;;;8.30;99.90;;;;;;5059642;28;20202;-45
2021/11/03 09:23:17;;;;;;;29.70;18.00;;;8.30;99.90;;;;;;5053426;28;21963;-43
2021/11/03 09:25:45;;;;;;;31.27;18.17;;;8.30;99.90;;;;;;5060948;28;20699;-45
2021/11/03 09:28:13;;;;;;;30.37;19.57;;;8.30;99.90;;;;;;5052586;28;20191;-44
2021/11/03 09:30:41;;;;;;;34.57;20.57;;;8.40;99.90;;;;;;5059886;28;20715;-45
2021/11/03 09:33:11;;;;;;;35.43;20.40;;;8.40;99.90;;;;;;5038985;28;20583;-43
2021/11/03 09:35:41;;;;;;;31.57;18.20;;;8.30;99.90;;;;;;5062472;28;20229;-43
2021/11/03 09:38:11;;;;;;;35.00;20.83;;;8.30;99.90;;;;;;5056222;28;20207;-45
2021/11/03 09:40:45;;;;;;;34.40;19.47;;;8.20;99.90;;;;;;5065147;28;20199;-43
2021/11/03 09:43:25;;;;;;;31.40;18.40;;;8.20;99.90;;;;;;5055854;28;20187;-47
2021/11/03 09:45:51;;;;;;;33.87;19.23;;;8.10;99.90;;;;;;5055132;28;20767;-45
2021/11/03 09:48:23;;;;;;;36.40;21.53;;;8.10;99.90;;;;;;5041350;28;20297;-43
2021/11/03 09:50:53;;;;;;;38.07;20.47;;;8.10;99.90;;;;;;5059663;28;20651;-45
2021/11/03 09:53:28;;;;;;;34.30;19.57;;;8.10;99.90;;;;;;5057287;28;20222;-49
2021/11/03 09:55:56;;;;;;;34.83;20.00;;;8.10;99.90;;;;;;5063947;28;20276;-42
2021/11/03 09:58:48;;;;;;;35.07;19.50;;;8.10;99.90;;;;;;5054509;28;21561;-47
2021/11/03 10:01:21;;;;;;;37.13;20.50;;;8.00;99.90;;;;;;5050357;28;20194;-45
2021/11/03 10:04:03;;;;;;;33.33;19.83;;;8.10;99.90;;;;;;5050774;28;20230;-43
2021/11/03 10:06:57;;;;;;;31.83;18.93;;;8.10;99.90;;;;;;5063965;28;20963;-46
2021/11/03 10:09:23;;;;;;;33.93;19.17;;;8.20;99.90;;;;;;5063171;28;20211;-42
2021/11/03 10:11:53;;;;;;;33.80;19.20;;;8.20;99.90;;;;;;5065194;28;20191;-47
2021/11/03 10:14:21;;;;;;;33.77;20.07;;;8.20;99.90;;;;;;5061157;28;20211;-43
2021/11/03 10:16:51;;;;;;;34.63;18.20;;;8.20;99.90;;;;;;5060697;28;20199;-49
2021/11/03 10:19:32;;;;;;;36.67;20.87;;;8.20;99.90;;;;;;5042117;28;20213;-53
2021/11/03 10:22:01;;;;;;;32.90;18.40;;;8.30;99.90;;;;;;5052430;28;20609;-49
2021/11/03 10:24:41;;;;;;;29.50;17.77;;;8.40;99.90;;;;;;5063097;28;20326;-51
2021/11/03 10:27:18;;;;;;;29.90;17.30;;;8.40;99.90;;;;;;5057600;28;20709;-50
2021/11/03 10:29:49;;;;;;;29.50;17.97;;;8.40;99.90;;;;;;5066033;28;20277;-48
2021/11/03 10:32:24;;;;;;;26.43;16.70;;;8.30;99.90;;;;;;5052785;28;20827;-53
2021/11/03 10:35:00;;;;;;;30.90;17.53;;;8.40;99.90;;;;;;5049758;28;20229;-49
2021/11/03 10:37:36;;;;;;;30.80;18.50;;;8.40;99.90;;;;;;5054001;28;20277;-50
2021/11/03 10:40:21;;;;;;;25.67;16.93;;;8.40;99.90;;;;;;5059054;28;20198;-49
2021/11/03 10:42:52;;;;;;;30.67;18.30;;;8.40;99.90;;;;;;5058760;28;20202;-53
2021/11/03 10:45:29;;;;;;;31.70;18.33;;;8.40;99.90;;;;;;5059133;28;20961;-49
2021/11/03 10:48:10;;;;;;;32.70;18.60;;;8.40;99.90;;;;;;5050919;28;20551;-53
2021/11/03 10:50:40;;;;;;;29.13;18.17;;;8.40;99.90;;;;;;5047721;28;20207;-53
2021/11/03 10:53:20;;;;;;;27.50;17.37;;;8.40;99.90;;;;;;5058326;28;20281;-47
2021/11/03 10:55:57;;;;;;;30.37;17.97;;;8.50;99.90;;;;;;5055255;28;20225;-51
2021/11/03 10:58:27;;;;;;;32.40;18.10;;;8.50;99.90;;;;;;5061601;28;20194;-52
2021/11/03 11:01:03;;;;;;;30.33;17.80;;;8.50;99.90;;;;;;5056856;28;20194;-52
2021/11/03 11:03:34;;;;;;;31.97;18.87;;;8.50;99.90;;;;;;5060762;28;20217;-52
2021/11/03 11:06:11;;;;;;;30.10;17.67;;;8.60;99.90;;;;;;5043934;28;20190;-51
2021/11/03 11:08:49;;;;;;;34.83;18.40;;;8.70;99.90;;;;;;5058543;28;20670;-51
2021/11/03 11:11:21;;;;;;;32.80;17.73;;;8.80;99.90;;;;;;5057366;28;20213;-53
2021/11/03 11:13:53;;;;;;;29.57;18.00;;;8.90;99.90;;;;;;5060732;28;20301;-49
2021/11/03 11:16:30;;;;;;;37.03;18.83;;;8.90;99.90;;;;;;5051945;28;20276;-50
2021/11/03 11:19:04;;;;;;;28.63;17.43;;;9.00;99.90;;;;;;5053011;28;20210;-50
2021/11/03 11:21:43;;;;;;;29.63;17.47;;;9.00;99.90;;;;;;5049710;28;20697;-47
2021/11/03 11:24:14;;;;;;;27.53;16.33;;;9.10;99.90;;;;;;5057638;28;20218;-50
2021/11/03 11:26:47;;;;;;;26.53;16.57;;;9.20;99.90;;;;;;5058058;28;20654;-52
2021/11/03 11:29:22;;;;;;;25.50;16.13;;;9.20;99.90;;;;;;5059075;28;20981;-54
2021/11/03 11:31:57;;;;;;;24.27;15.90;;;9.20;99.90;;;;;;5064633;28;20221;-50
2021/11/03 11:34:37;;;;;;;24.23;15.03;;;9.20;99.90;;;;;;5055015;28;20579;-53
2021/11/03 11:37:13;;;;;;;28.33;16.10;;;9.20;99.90;;;;;;5054859;28;20194;-49
2021/11/03 11:39:48;;;;;;;23.47;15.00;;;9.30;99.90;;;;;;5057562;28;20577;-53
2021/11/03 11:42:18;;;;;;;26.47;15.70;;;9.30;99.90;;;;;;5054709;28;21073;-51
2021/11/03 11:44:54;;;;;;;21.50;14.67;;;9.40;99.90;;;;;;5061575;28;20210;-50
2021/11/03 11:47:33;;;;;;;24.07;16.03;;;9.40;99.90;;;;;;5063523;28;20201;-52
2021/11/03 11:50:01;;;;;;;25.87;14.50;;;9.40;99.90;;;;;;5054457;28;20206;-50
2021/11/03 11:52:31;;;;;;;22.87;14.50;;;9.40;99.90;;;;;;5049558;28;20214;-48
2021/11/03 11:55:18;;;;;;;25.50;14.73;;;9.40;99.90;;;;;;5053468;28;20281;-46
2021/11/03 11:58:13;;;;;;;23.63;15.00;;;9.50;99.90;;;;;;5061614;28;20194;-52
2021/11/03 12:01:00;;;;;;;22.97;14.03;;;9.50;99.90;;;;;;5052803;28;20276;-50
2021/11/03 12:03:29;;;;;;;23.03;14.47;;;9.50;99.90;;;;;;5053196;28;20666;-52
2021/11/03 12:06:04;;;;;;;19.93;13.63;;;9.60;99.90;;;;;;5059076;28;20240;-52
2021/11/03 12:08:49;;;;;;;21.43;13.63;;;9.60;99.90;;;;;;5048791;28;20305;-50
2021/11/03 12:11:20;;;;;;;19.10;13.37;;;9.60;99.90;;;;;;5060061;28;20739;-53
2021/11/03 12:14:24;;;;;;;22.27;13.63;;;9.60;99.90;;;;;;5059155;28;20280;-53
2021/11/03 12:16:58;;;;;;;22.57;13.30;;;9.60;99.90;;;;;;5056783;28;20248;-48
2021/11/03 12:19:57;;;;;;;19.17;14.03;;;9.60;99.90;;;;;;5060462;28;20227;-48
2021/11/03 12:22:48;;;;;;;23.50;14.10;;;9.70;99.90;;;;;;5043444;28;20218;-51
2021/11/03 12:25:44;;;;;;;18.53;12.43;;;9.70;99.90;;;;;;5056578;28;20233;-53
2021/11/03 12:28:34;;;;;;;24.00;13.53;;;9.70;99.90;;;;;;5054291;28;20194;-50
2021/11/03 12:31:19;;;;;;;20.23;13.30;;;9.70;99.90;;;;;;5054478;28;20210;-51
2021/11/03 12:34:22;;;;;;;19.27;12.57;;;9.70;99.90;;;;;;5058399;28;20222;-50
2021/11/03 12:37:00;;;;;;;19.23;12.13;;;9.70;99.90;;;;;;5034620;28;20213;-48
2021/11/03 12:39:51;;;;;;;17.83;12.00;;;9.70;99.90;;;;;;5059095;28;20678;-50
2021/11/03 12:42:23;;;;;;;19.07;11.77;;;9.70;99.90;;;;;;5055782;28;20230;-50
2021/11/03 12:44:54;;;;;;;18.47;12.53;;;9.80;99.90;;;;;;5061118;28;20244;-51
2021/11/03 12:47:23;;;;;;;17.10;11.33;;;9.80;99.90;;;;;;5057961;28;20217;-49
2021/11/03 12:50:01;;;;;;;19.77;12.10;;;9.80;99.90;;;;;;5055419;28;20203;-51
2021/11/03 12:52:29;;;;;;;17.77;10.93;;;9.80;99.90;;;;;;5063471;28;20201;-51
2021/11/03 12:54:55;;;;;;;14.80;10.63;;;9.80;99.90;;;;;;5044549;28;20218;-58